Time;durP1;ratioP1;P1;durP2;ratioP2;P2;SDS_P1;SDS_P2;PMS_P1;PMS_P2;Temp;Humidity;BMP_temperature;BMP_pressure;BME280_temperature;BME280_humidity;BME280_pressure;Samples;Min_cycle;Max_cycle;Signal;HPM_P1;HPM_P2
2024/03/19 00:01:48;;;;;;;;;19.00;18.00;;;;;;;;5005137;28;45311;-81
2024/03/19 00:04:14;;;;;;;;;16.67;16.67;;;;;;;;5022500;28;45302;-81
2024/03/19 00:06:39;;;;;;;;;18.00;16.00;;;;;;;;5022568;28;45406;-81
2024/03/19 00:09:04;;;;;;;;;19.00;18.00;;;;;;;;5004562;28;46049;-81
2024/03/19 00:11:29;;;;;;;;;16.33;16.33;;;;;;;;5005011;28;45442;-81
2024/03/19 00:13:54;;;;;;;;;16.00;16.00;;;;;;;;5024425;28;45349;-80
2024/03/19 00:16:20;;;;;;;;;12.33;12.33;;;;;;;;5008568;28;47207;-81
2024/03/19 00:18:45;;;;;;;;;14.00;12.67;;;;;;;;5006034;28;45294;-81
2024/03/19 00:21:10;;;;;;;;;17.33;17.33;;;;;;;;5005672;28;45226;-81
2024/03/19 00:23:36;;;;;;;;;17.00;16.00;;;;;;;;5024633;28;45262;-81
2024/03/19 00:26:01;;;;;;;;;17.67;16.00;;;;;;;;5022634;28;45330;-81
2024/03/19 00:28:27;;;;;;;;;17.00;16.33;;;;;;;;5023923;28;45632;-81
2024/03/19 00:30:52;;;;;;;;;12.00;12.00;;;;;;;;5009129;28;45463;-81
2024/03/19 00:33:17;;;;;;;;;10.33;10.33;;;;;;;;5029440;28;45338;-81
2024/03/19 00:35:42;;;;;;;;;14.67;14.67;;;;;;;;5024752;28;46352;-81
2024/03/19 00:38:08;;;;;;;;;12.33;12.33;;;;;;;;5008125;28;45265;-82
2024/03/19 00:40:34;;;;;;;;;13.33;13.00;;;;;;;;5024495;28;45297;-82
2024/03/19 00:42:59;;;;;;;;;14.33;14.33;;;;;;;;5025644;28;45308;-81
2024/03/19 00:45:24;;;;;;;;;18.67;17.67;;;;;;;;5005531;28;48314;-81
2024/03/19 00:47:49;;;;;;;;;14.33;14.33;;;;;;;;5023420;28;45352;-81
2024/03/19 00:50:14;;;;;;;;;16.33;16.33;;;;;;;;5026626;28;45229;-81
2024/03/19 00:52:40;;;;;;;;;19.00;19.00;;;;;;;;5024044;28;45250;-82
2024/03/19 00:55:05;;;;;;;;;17.67;17.00;;;;;;;;5005008;28;47021;-81
2024/03/19 00:57:31;;;;;;;;;20.00;19.00;;;;;;;;4999394;28;46294;-81
2024/03/19 00:59:56;;;;;;;;;22.00;19.67;;;;;;;;5002858;28;45242;-80
2024/03/19 01:02:21;;;;;;;;;21.33;20.67;;;;;;;;5008978;28;45337;-80
2024/03/19 01:04:48;;;;;;;;;19.00;16.67;;;;;;;;5010105;28;45528;-81
2024/03/19 01:07:13;;;;;;;;;19.67;19.00;;;;;;;;4988117;28;45295;-81
2024/03/19 01:09:39;;;;;;;;;21.33;20.67;;;;;;;;5003564;28;45665;-81
2024/03/19 01:12:04;;;;;;;;;20.67;20.67;;;;;;;;5000813;28;45399;-81
2024/03/19 01:14:30;;;;;;;;;17.33;16.33;;;;;;;;4985675;28;47609;-81
2024/03/19 01:16:55;;;;;;;;;25.67;25.00;;;;;;;;4985589;28;45236;-81
2024/03/19 01:19:20;;;;;;;;;21.67;21.33;;;;;;;;5002714;28;45282;-81
2024/03/19 01:21:46;;;;;;;;;20.67;19.00;;;;;;;;5001054;28;45519;-80
2024/03/19 01:24:11;;;;;;;;;20.00;19.33;;;;;;;;5003332;28;45471;-80
2024/03/19 01:26:36;;;;;;;;;18.00;18.00;;;;;;;;5003105;28;45258;-80
2024/03/19 01:29:01;;;;;;;;;21.67;18.00;;;;;;;;4985106;28;45323;-81
2024/03/19 01:31:28;;;;;;;;;15.67;15.00;;;;;;;;5001612;28;45321;-80
2024/03/19 01:33:54;;;;;;;;;15.33;15.33;;;;;;;;5001814;28;45352;-81
2024/03/19 01:36:19;;;;;;;;;20.00;17.33;;;;;;;;4984775;28;45230;-80
2024/03/19 01:38:45;;;;;;;;;23.33;21.67;;;;;;;;4985058;28;45366;-81
2024/03/19 01:41:14;;;;;;;;;18.67;16.00;;;;;;;;4984061;28;46976;-81
2024/03/19 01:43:40;;;;;;;;;18.67;18.67;;;;;;;;5001749;28;46469;-81
2024/03/19 01:46:24;;;;;;;;;14.00;13.00;;;;;;;;5002425;28;45862;-81
2024/03/19 01:48:49;;;;;;;;;19.00;16.67;;;;;;;;5003127;28;45418;-81
2024/03/19 01:51:17;;;;;;;;;15.33;15.00;;;;;;;;4987870;28;46024;-81
2024/03/19 01:53:42;;;;;;;;;15.00;15.00;;;;;;;;5005744;28;45567;-81
2024/03/19 01:56:08;;;;;;;;;20.33;20.00;;;;;;;;5004336;28;45277;-81
2024/03/19 01:58:33;;;;;;;;;15.00;15.00;;;;;;;;5002080;28;45375;-81
2024/03/19 02:00:58;;;;;;;;;19.67;17.33;;;;;;;;5005594;28;46115;-81
2024/03/19 02:03:24;;;;;;;;;17.33;17.33;;;;;;;;5025319;28;45408;-81
2024/03/19 02:05:49;;;;;;;;;18.00;17.00;;;;;;;;5005194;28;45393;-81
2024/03/19 02:08:15;;;;;;;;;19.00;18.00;;;;;;;;5025005;28;45452;-81
2024/03/19 02:10:41;;;;;;;;;21.33;19.33;;;;;;;;5008712;28;46396;-81
2024/03/19 02:13:07;;;;;;;;;21.00;19.33;;;;;;;;5026221;28;45456;-81
2024/03/19 02:15:32;;;;;;;;;20.00;16.67;;;;;;;;5025871;28;45194;-81
2024/03/19 02:17:57;;;;;;;;;15.00;12.33;;;;;;;;5010713;28;45544;-81
2024/03/19 02:20:22;;;;;;;;;15.33;15.33;;;;;;;;5028186;28;45326;-80
2024/03/19 02:22:49;;;;;;;;;21.00;20.33;;;;;;;;5024381;28;45289;-80
2024/03/19 02:25:19;;;;;;;;;19.00;18.67;;;;;;;;5016079;28;45419;-80
2024/03/19 02:27:44;;;;;;;;;23.67;21.33;;;;;;;;4971261;28;45333;-81
2024/03/19 02:30:09;;;;;;;;;15.00;15.00;;;;;;;;4972897;28;45877;-81
2024/03/19 02:32:35;;;;;;;;;19.33;19.00;;;;;;;;4969543;28;47309;-81
2024/03/19 02:35:00;;;;;;;;;16.33;16.33;;;;;;;;4989669;28;45409;-81
2024/03/19 02:37:26;;;;;;;;;21.00;18.00;;;;;;;;4971840;28;45309;-81
2024/03/19 02:39:52;;;;;;;;;18.67;17.00;;;;;;;;4993730;28;45369;-81
2024/03/19 02:42:17;;;;;;;;;17.67;14.67;;;;;;;;4989017;28;45575;-80
2024/03/19 02:44:42;;;;;;;;;16.67;16.33;;;;;;;;4970552;28;45294;-80
2024/03/19 02:47:07;;;;;;;;;19.67;19.67;;;;;;;;4970434;28;45320;-80
2024/03/19 02:49:32;;;;;;;;;16.67;13.33;;;;;;;;4988263;28;45536;-81
2024/03/19 02:51:57;;;;;;;;;18.67;18.33;;;;;;;;4970605;28;47335;-81
2024/03/19 02:54:23;;;;;;;;;20.33;20.33;;;;;;;;4970888;28;45247;-80
2024/03/19 02:56:48;;;;;;;;;16.67;15.67;;;;;;;;4977543;28;45614;-80
2024/03/19 02:59:13;;;;;;;;;18.67;17.33;;;;;;;;5026179;28;45519;-80
2024/03/19 03:01:38;;;;;;;;;15.67;15.00;;;;;;;;5026018;28;45301;-80
2024/03/19 03:04:04;;;;;;;;;19.67;17.00;;;;;;;;5001826;28;45408;-80
2024/03/19 03:06:30;;;;;;;;;19.33;17.00;;;;;;;;5010411;28;45313;-80
2024/03/19 03:08:55;;;;;;;;;15.33;14.67;;;;;;;;5005015;28;45338;-80
2024/03/19 03:11:20;;;;;;;;;14.33;14.00;;;;;;;;4987789;28;46640;-81
2024/03/19 03:13:46;;;;;;;;;19.33;18.33;;;;;;;;5005730;28;45279;-80
2024/03/19 03:16:11;;;;;;;;;17.00;15.00;;;;;;;;5011458;28;44716;-80
2024/03/19 03:18:36;;;;;;;;;19.67;19.00;;;;;;;;5006406;28;45333;-81
2024/03/19 03:21:01;;;;;;;;;18.00;16.67;;;;;;;;4995668;28;47400;-80
2024/03/19 03:23:27;;;;;;;;;16.67;16.67;;;;;;;;5006687;28;45268;-81
2024/03/19 03:25:52;;;;;;;;;21.67;18.00;;;;;;;;5005705;28;45464;-81
2024/03/19 03:28:17;;;;;;;;;17.00;16.00;;;;;;;;5006164;28;45434;-81
2024/03/19 03:30:42;;;;;;;;;15.67;15.67;;;;;;;;5011832;28;45374;-80
2024/03/19 03:33:08;;;;;;;;;17.33;16.00;;;;;;;;5007395;28;45351;-80
2024/03/19 03:35:33;;;;;;;;;16.67;16.67;;;;;;;;4987959;28;45330;-80
2024/03/19 03:37:58;;;;;;;;;20.67;19.00;;;;;;;;4989346;28;47238;-80
2024/03/19 03:40:24;;;;;;;;;16.00;16.00;;;;;;;;4987628;28;47986;-80
2024/03/19 03:42:49;;;;;;;;;14.67;14.67;;;;;;;;5006973;28;45249;-80
2024/03/19 03:45:17;;;;;;;;;18.33;17.00;;;;;;;;5010404;28;45250;-81
2024/03/19 03:47:43;;;;;;;;;19.00;18.67;;;;;;;;4991108;28;46153;-80
2024/03/19 03:50:09;;;;;;;;;18.00;15.00;;;;;;;;5005268;28;46568;-80
2024/03/19 03:52:37;;;;;;;;;15.00;15.00;;;;;;;;4989065;28;45862;-81
2024/03/19 03:55:04;;;;;;;;;18.33;16.67;;;;;;;;4991766;28;45278;-80
2024/03/19 03:57:29;;;;;;;;;15.33;13.33;;;;;;;;5001978;28;45333;-80
2024/03/19 03:59:55;;;;;;;;;15.67;12.33;;;;;;;;4969980;28;47179;-80
2024/03/19 04:02:20;;;;;;;;;12.67;12.67;;;;;;;;4989113;28;45274;-79
2024/03/19 04:04:45;;;;;;;;;19.33;16.67;;;;;;;;4967019;28;45319;-80
2024/03/19 04:07:10;;;;;;;;;12.00;12.00;;;;;;;;4987647;28;45330;-79
2024/03/19 04:09:36;;;;;;;;;14.67;13.67;;;;;;;;4990551;28;45337;-79
2024/03/19 04:12:01;;;;;;;;;13.33;13.00;;;;;;;;5005858;28;45592;-81
2024/03/19 04:14:26;;;;;;;;;16.00;14.33;;;;;;;;4992584;28;45769;-81
2024/03/19 04:16:51;;;;;;;;;15.00;15.00;;;;;;;;5008502;28;45495;-80
2024/03/19 04:19:17;;;;;;;;;15.00;14.67;;;;;;;;5010962;28;45291;-80
2024/03/19 04:21:43;;;;;;;;;15.67;12.67;;;;;;;;4992478;28;45375;-79
2024/03/19 04:24:08;;;;;;;;;15.33;14.67;;;;;;;;5009783;28;45326;-80
2024/03/19 04:26:36;;;;;;;;;10.67;9.67;;;;;;;;5009637;28;45304;-80
2024/03/19 04:29:02;;;;;;;;;17.00;15.67;;;;;;;;4990526;28;47365;-80
2024/03/19 04:31:27;;;;;;;;;13.67;10.67;;;;;;;;5009812;28;45265;-80
2024/03/19 04:33:52;;;;;;;;;12.67;12.67;;;;;;;;4991282;28;45437;-80
2024/03/19 04:36:17;;;;;;;;;15.00;12.67;;;;;;;;4995078;28;47269;-80
2024/03/19 04:38:42;;;;;;;;;13.00;13.00;;;;;;;;5015769;28;46418;-79
2024/03/19 04:41:11;;;;;;;;;10.33;10.33;;;;;;;;4995899;28;45874;-80
2024/03/19 04:43:36;;;;;;;;;16.33;15.00;;;;;;;;5014325;28;45343;-80
2024/03/19 04:46:04;;;;;;;;;12.33;10.67;;;;;;;;5015810;28;45490;-79
2024/03/19 04:48:29;;;;;;;;;12.33;12.33;;;;;;;;5012569;28;46814;-80
2024/03/19 04:50:55;;;;;;;;;14.33;11.33;;;;;;;;4996740;28;45193;-80
2024/03/19 04:53:20;;;;;;;;;12.00;12.00;;;;;;;;4994815;28;45314;-80
2024/03/19 04:55:45;;;;;;;;;11.33;11.33;;;;;;;;5015240;28;45523;-80
2024/03/19 04:58:11;;;;;;;;;18.00;15.33;;;;;;;;5010764;28;46907;-81
2024/03/19 05:00:36;;;;;;;;;15.00;14.33;;;;;;;;5002875;28;45313;-80
2024/03/19 05:03:01;;;;;;;;;12.33;11.67;;;;;;;;5014570;28;45363;-79
2024/03/19 05:05:26;;;;;;;;;11.33;9.00;;;;;;;;5011578;28;45287;-79
2024/03/19 05:07:52;;;;;;;;;15.00;15.00;;;;;;;;4994036;28;47248;-78
2024/03/19 05:10:17;;;;;;;;;14.33;13.33;;;;;;;;4994848;28;45665;-79
2024/03/19 05:12:42;;;;;;;;;14.67;14.67;;;;;;;;4997216;28;45386;-79
2024/03/19 05:15:08;;;;;;;;;15.33;13.00;;;;;;;;4993294;28;47253;-79
2024/03/19 05:17:33;;;;;;;;;14.67;14.67;;;;;;;;5012798;28;46176;-78
2024/03/19 05:19:58;;;;;;;;;13.33;13.00;;;;;;;;5016001;28;45301;-78
2024/03/19 05:22:23;;;;;;;;;15.00;15.00;;;;;;;;4996884;28;45533;-79
2024/03/19 05:24:49;;;;;;;;;17.67;16.00;;;;;;;;5013210;28;45427;-79
2024/03/19 05:27:14;;;;;;;;;14.00;14.00;;;;;;;;5014062;28;45658;-79
2024/03/19 05:29:39;;;;;;;;;16.67;12.33;;;;;;;;4994136;28;45298;-79
2024/03/19 05:32:07;;;;;;;;;14.33;14.33;;;;;;;;5009795;28;45399;-79
2024/03/19 05:34:32;;;;;;;;;17.00;15.67;;;;;;;;4991181;28;47267;-79
2024/03/19 05:36:58;;;;;;;;;14.00;14.00;;;;;;;;5011110;28;45393;-79
2024/03/19 05:39:24;;;;;;;;;15.00;14.33;;;;;;;;4990006;28;45738;-79
2024/03/19 05:41:49;;;;;;;;;13.67;12.00;;;;;;;;4993616;28;45368;-78
2024/03/19 05:44:15;;;;;;;;;13.33;12.67;;;;;;;;4997150;28;46807;-79
2024/03/19 05:46:40;;;;;;;;;14.67;13.33;;;;;;;;5009986;28;45482;-78
2024/03/19 05:49:05;;;;;;;;;16.67;15.67;;;;;;;;5015941;28;45230;-79
2024/03/19 05:51:31;;;;;;;;;17.00;16.00;;;;;;;;4991900;28;45294;-79
2024/03/19 05:53:56;;;;;;;;;14.67;14.67;;;;;;;;5014879;28;45308;-79
2024/03/19 05:56:21;;;;;;;;;15.33;15.33;;;;;;;;4995103;28;47230;-79
2024/03/19 05:58:46;;;;;;;;;17.00;14.33;;;;;;;;5011814;28;45282;-79
2024/03/19 06:01:12;;;;;;;;;15.00;15.00;;;;;;;;5016110;28;45393;-79
2024/03/19 06:03:37;;;;;;;;;19.00;19.00;;;;;;;;5013454;28;46767;-79
2024/03/19 06:06:09;;;;;;;;;23.67;21.00;;;;;;;;5013822;28;46197;-79
2024/03/19 06:08:37;;;;;;;;;24.67;24.00;;;;;;;;4995772;28;46110;-78
2024/03/19 06:11:03;;;;;;;;;32.33;30.00;;;;;;;;5012424;28;45709;-79
2024/03/19 06:13:28;;;;;;;;;33.00;31.00;;;;;;;;4995392;28;46534;-79
2024/03/19 06:15:53;;;;;;;;;41.67;34.33;;;;;;;;5008868;28;45576;-80
2024/03/19 06:18:18;;;;;;;;;32.00;28.67;;;;;;;;5010888;28;45270;-79
2024/03/19 06:20:45;;;;;;;;;32.67;28.00;;;;;;;;5010672;28;45309;-78
2024/03/19 06:23:14;;;;;;;;;23.00;22.67;;;;;;;;4988962;28;46455;-78
2024/03/19 06:25:39;;;;;;;;;26.33;25.33;;;;;;;;5004757;28;46096;-77
2024/03/19 06:28:05;;;;;;;;;22.00;19.00;;;;;;;;5009690;28;45341;-78
2024/03/19 06:30:33;;;;;;;;;21.00;19.67;;;;;;;;5010296;28;45278;-77
2024/03/19 06:32:58;;;;;;;;;22.00;19.67;;;;;;;;4987392;28;45972;-78
2024/03/19 06:35:24;;;;;;;;;20.00;19.00;;;;;;;;4987074;28;47871;-77
2024/03/19 06:37:50;;;;;;;;;20.67;20.67;;;;;;;;4991213;28;45284;-79
2024/03/19 06:40:15;;;;;;;;;25.00;21.00;;;;;;;;5016726;28;45225;-78
2024/03/19 06:42:40;;;;;;;;;20.00;19.00;;;;;;;;4996004;28;46343;-79
2024/03/19 06:45:08;;;;;;;;;20.67;20.00;;;;;;;;5009738;28;45628;-80
2024/03/19 06:47:34;;;;;;;;;21.33;20.00;;;;;;;;5002867;28;45341;-79
2024/03/19 06:49:59;;;;;;;;;21.00;20.33;;;;;;;;4982647;28;45429;-79
2024/03/19 06:52:25;;;;;;;;;25.33;24.00;;;;;;;;4982285;28;46074;-79
2024/03/19 06:54:50;;;;;;;;;25.00;24.00;;;;;;;;4988011;28;47307;-80
2024/03/19 06:57:17;;;;;;;;;26.67;25.67;;;;;;;;5004007;28;45396;-78
2024/03/19 06:59:42;;;;;;;;;28.67;25.67;;;;;;;;4982247;28;45365;-78
2024/03/19 07:02:09;;;;;;;;;26.67;24.33;;;;;;;;5000016;28;45522;-78
2024/03/19 07:04:35;;;;;;;;;25.33;25.00;;;;;;;;4985443;28;47405;-79
2024/03/19 07:07:00;;;;;;;;;30.00;28.67;;;;;;;;5008427;28;45393;-81
2024/03/19 07:09:27;;;;;;;;;36.67;33.00;;;;;;;;4990547;28;45326;-78
2024/03/19 07:11:52;;;;;;;;;36.67;33.00;;;;;;;;5004202;28;45556;-77
2024/03/19 07:14:17;;;;;;;;;37.33;32.67;;;;;;;;5001730;28;46175;-77
2024/03/19 07:16:42;;;;;;;;;29.67;29.00;;;;;;;;5003434;28;45685;-77
2024/03/19 07:19:10;;;;;;;;;25.67;25.67;;;;;;;;5005490;28;45448;-78
2024/03/19 07:21:35;;;;;;;;;27.33;27.00;;;;;;;;5004320;28;45381;-77
2024/03/19 07:24:00;;;;;;;;;26.00;25.00;;;;;;;;4990386;28;48438;-77
2024/03/19 07:26:26;;;;;;;;;28.33;24.33;;;;;;;;5006933;28;45303;-76
2024/03/19 07:28:51;;;;;;;;;34.00;30.00;;;;;;;;5000591;28;45412;-74
2024/03/19 07:31:18;;;;;;;;;28.33;27.00;;;;;;;;4999365;28;45239;-74
2024/03/19 07:33:43;;;;;;;;;27.33;27.33;;;;;;;;4981493;28;47307;-74
2024/03/19 07:36:08;;;;;;;;;23.33;23.00;;;;;;;;5000014;28;45468;-74
2024/03/19 07:38:33;;;;;;;;;29.33;26.00;;;;;;;;4999834;28;45324;-74
2024/03/19 07:40:58;;;;;;;;;29.67;27.67;;;;;;;;5001879;28;45431;-74
2024/03/19 07:43:25;;;;;;;;;33.00;30.67;;;;;;;;5001859;28;45388;-75
2024/03/19 07:45:51;;;;;;;;;29.33;27.33;;;;;;;;5001325;28;45293;-74
2024/03/19 07:48:16;;;;;;;;;32.00;31.00;;;;;;;;4999698;28;45437;-75
2024/03/19 07:50:42;;;;;;;;;28.67;27.67;;;;;;;;5002502;28;45374;-76
2024/03/19 07:53:07;;;;;;;;;25.33;24.67;;;;;;;;5003463;28;45326;-77
2024/03/19 07:55:33;;;;;;;;;26.00;24.67;;;;;;;;4983241;28;45400;-75
2024/03/19 07:57:58;;;;;;;;;26.00;22.67;;;;;;;;4995525;28;45383;-74
2024/03/19 08:00:25;;;;;;;;;29.33;28.33;;;;;;;;5019381;28;45270;-74
2024/03/19 08:02:50;;;;;;;;;25.00;25.00;;;;;;;;5022650;28;45214;-74
2024/03/19 08:05:15;;;;;;;;;26.00;26.00;;;;;;;;5021438;28;45487;-74
2024/03/19 08:07:41;;;;;;;;;30.00;27.00;;;;;;;;5020257;28;45317;-74
2024/03/19 08:10:07;;;;;;;;;28.00;27.33;;;;;;;;5007362;28;46099;-75
2024/03/19 08:12:32;;;;;;;;;28.00;27.00;;;;;;;;5006807;28;47349;-74
2024/03/19 08:15:00;;;;;;;;;23.00;21.33;;;;;;;;5023252;28;45396;-74
2024/03/19 08:17:26;;;;;;;;;24.00;24.00;;;;;;;;5023569;28;45400;-74
2024/03/19 08:19:51;;;;;;;;;31.00;29.33;;;;;;;;5015907;28;46092;-74
2024/03/19 08:22:17;;;;;;;;;34.33;30.33;;;;;;;;5015682;28;46092;-74
2024/03/19 08:24:42;;;;;;;;;35.67;31.67;;;;;;;;5016375;28;45254;-74
2024/03/19 08:27:08;;;;;;;;;28.00;27.33;;;;;;;;5036063;28;44658;-74
2024/03/19 08:29:33;;;;;;;;;33.33;29.33;;;;;;;;5033007;28;45188;-74
2024/03/19 08:31:58;;;;;;;;;32.00;30.00;;;;;;;;5011142;28;47082;-74
2024/03/19 08:34:23;;;;;;;;;19.00;15.00;;;;;;;;5008942;28;45258;-73
2024/03/19 08:36:48;;;;;;;;;33.67;31.33;;;;;;;;5025472;28;45256;-73
2024/03/19 08:39:13;;;;;;;;;35.67;32.00;;;;;;;;5004106;28;46366;-74
2024/03/19 08:41:38;;;;;;;;;34.67;30.67;;;;;;;;5003357;28;47099;-74
2024/03/19 08:44:05;;;;;;;;;34.67;31.67;;;;;;;;4980307;28;45947;-74
2024/03/19 08:46:30;;;;;;;;;32.00;28.33;;;;;;;;5000153;28;45455;-74
2024/03/19 08:48:55;;;;;;;;;36.00;32.33;;;;;;;;5018259;28;45593;-74
2024/03/19 08:51:21;;;;;;;;;33.33;31.33;;;;;;;;5003253;28;48193;-74
2024/03/19 08:53:47;;;;;;;;;33.67;31.00;;;;;;;;5004596;28;45313;-74
2024/03/19 08:56:12;;;;;;;;;36.00;32.00;;;;;;;;5001404;28;45435;-74
2024/03/19 08:58:38;;;;;;;;;35.00;31.33;;;;;;;;5018019;28;45525;-74
2024/03/19 09:01:03;;;;;;;;;39.33;34.67;;;;;;;;4985792;28;47274;-74
2024/03/19 09:03:28;;;;;;;;;33.33;30.67;;;;;;;;4996040;28;45330;-74
2024/03/19 09:05:54;;;;;;;;;39.33;35.00;;;;;;;;5003393;28;45297;-74
2024/03/19 09:08:20;;;;;;;;;46.67;39.00;;;;;;;;5020254;28;45505;-75
2024/03/19 09:10:45;;;;;;;;;41.67;35.33;;;;;;;;5020849;28;45892;-74
2024/03/19 09:13:11;;;;;;;;;37.67;34.33;;;;;;;;5002802;28;45345;-75
2024/03/19 09:15:36;;;;;;;;;43.33;36.67;;;;;;;;5021409;28;45351;-74
2024/03/19 09:18:01;;;;;;;;;43.67;36.00;;;;;;;;5020470;28;45595;-74
2024/03/19 09:20:26;;;;;;;;;37.00;34.00;;;;;;;;5021135;28;46383;-74
2024/03/19 09:22:52;;;;;;;;;40.33;33.33;;;;;;;;5019307;28;46481;-74
2024/03/19 09:25:17;;;;;;;;;36.00;32.00;;;;;;;;5021339;28;45286;-75
2024/03/19 09:27:43;;;;;;;;;36.00;32.00;;;;;;;;5020615;28;46088;-74
2024/03/19 09:30:09;;;;;;;;;38.67;34.33;;;;;;;;5002996;28;47069;-74
2024/03/19 09:32:37;;;;;;;;;37.00;33.00;;;;;;;;4993020;28;45710;-75
2024/03/19 09:35:03;;;;;;;;;37.00;33.00;;;;;;;;4982868;28;45260;-74
2024/03/19 09:37:29;;;;;;;;;34.00;30.67;;;;;;;;5000191;28;45479;-74
2024/03/19 09:39:54;;;;;;;;;31.33;28.67;;;;;;;;5000201;28;45323;-76
2024/03/19 09:42:22;;;;;;;;;34.33;31.33;;;;;;;;5001047;28;45351;-74
2024/03/19 09:44:48;;;;;;;;;33.67;31.00;;;;;;;;5002886;28;46647;-74
2024/03/19 09:47:16;;;;;;;;;35.67;32.00;;;;;;;;5000723;28;45566;-74
2024/03/19 09:49:41;;;;;;;;;30.67;29.00;;;;;;;;5000309;28;45611;-75
2024/03/19 09:52:07;;;;;;;;;31.67;28.67;;;;;;;;5000896;28;45348;-75
2024/03/19 09:54:32;;;;;;;;;27.33;26.00;;;;;;;;5001962;28;45314;-75
2024/03/19 09:56:58;;;;;;;;;24.67;24.00;;;;;;;;4999845;28;45565;-75
2024/03/19 09:59:25;;;;;;;;;21.00;19.33;;;;;;;;5001156;28;45511;-75
2024/03/19 10:01:50;;;;;;;;;25.00;22.00;;;;;;;;4987321;28;45388;-75
2024/03/19 10:04:17;;;;;;;;;17.33;17.00;;;;;;;;5004104;28;45521;-75
2024/03/19 10:06:43;;;;;;;;;23.00;21.33;;;;;;;;4985374;28;46028;-75
2024/03/19 10:09:08;;;;;;;;;23.33;21.67;;;;;;;;5000071;28;45469;-75
2024/03/19 10:11:34;;;;;;;;;23.00;23.00;;;;;;;;5003556;28;45405;-75
2024/03/19 10:13:59;;;;;;;;;25.33;24.67;;;;;;;;5000763;28;45858;-76
2024/03/19 10:16:24;;;;;;;;;24.00;23.00;;;;;;;;5002277;28;45484;-75
2024/03/19 10:18:50;;;;;;;;;24.33;24.00;;;;;;;;4987046;28;47237;-77
2024/03/19 10:21:15;;;;;;;;;24.00;24.00;;;;;;;;5004341;28;45426;-77
2024/03/19 10:23:40;;;;;;;;;25.67;25.00;;;;;;;;5009886;28;44632;-76
2024/03/19 10:26:05;;;;;;;;;25.33;24.33;;;;;;;;5008152;28;45416;-76
2024/03/19 10:28:30;;;;;;;;;26.00;20.00;;;;;;;;5000181;28;45655;-74
2024/03/19 10:30:57;;;;;;;;;25.00;21.67;;;;;;;;5002031;28;45187;-75
2024/03/19 10:33:26;;;;;;;;;20.00;19.00;;;;;;;;4985156;28;45200;-74
2024/03/19 10:35:53;;;;;;;;;19.67;19.00;;;;;;;;5000693;28;45420;-74
2024/03/19 10:38:19;;;;;;;;;16.67;16.33;;;;;;;;5001863;28;46147;-73
2024/03/19 10:40:44;;;;;;;;;19.00;15.67;;;;;;;;5001253;28;45335;-73
2024/03/19 10:43:15;;;;;;;;;17.67;15.67;;;;;;;;5001672;28;45253;-74
2024/03/19 10:45:43;;;;;;;;;20.00;18.67;;;;;;;;5001021;28;45409;-74
2024/03/19 10:48:09;;;;;;;;;20.00;16.33;;;;;;;;5000426;28;45601;-74
2024/03/19 10:50:34;;;;;;;;;16.67;16.00;;;;;;;;5006412;28;45350;-73
2024/03/19 10:53:04;;;;;;;;;22.00;21.33;;;;;;;;4981818;28;45289;-73
2024/03/19 10:55:30;;;;;;;;;21.33;18.67;;;;;;;;4982548;28;46292;-74
2024/03/19 10:57:59;;;;;;;;;18.00;18.00;;;;;;;;5010570;28;45391;-74
2024/03/19 11:00:26;;;;;;;;;17.00;17.00;;;;;;;;5002120;28;46412;-74
2024/03/19 11:02:53;;;;;;;;;18.67;18.67;;;;;;;;5002221;28;45349;-73
2024/03/19 11:05:19;;;;;;;;;21.33;19.67;;;;;;;;5019495;28;45440;-76
2024/03/19 11:07:47;;;;;;;;;16.00;16.00;;;;;;;;5020271;28;45574;-77
2024/03/19 11:10:24;;;;;;;;;17.33;16.67;;;;;;;;5002246;28;45437;-76
2024/03/19 11:12:54;;;;;;;;;17.67;17.67;;;;;;;;5008447;28;45279;-76
2024/03/19 11:15:19;;;;;;;;;16.67;16.67;;;;;;;;5000052;28;45321;-76
2024/03/19 11:17:46;;;;;;;;;14.00;14.00;;;;;;;;4982478;28;45929;-76
2024/03/19 11:20:13;;;;;;;;;15.67;15.67;;;;;;;;4999335;28;45404;-76
2024/03/19 11:22:40;;;;;;;;;15.67;15.00;;;;;;;;4999646;28;45404;-76
2024/03/19 11:25:06;;;;;;;;;17.67;16.67;;;;;;;;4981574;28;46090;-76
2024/03/19 11:27:32;;;;;;;;;14.67;14.00;;;;;;;;4999251;28;45290;-76
2024/03/19 11:30:05;;;;;;;;;16.00;16.00;;;;;;;;4999615;28;45258;-76
2024/03/19 11:32:30;;;;;;;;;14.00;13.00;;;;;;;;4982180;28;45351;-79
2024/03/19 11:34:56;;;;;;;;;18.33;17.00;;;;;;;;5000547;28;45163;-76
2024/03/19 11:37:21;;;;;;;;;19.67;18.00;;;;;;;;4999654;28;45246;-76
2024/03/19 11:39:49;;;;;;;;;19.00;19.00;;;;;;;;4999723;28;45377;-76
2024/03/19 11:42:15;;;;;;;;;21.00;20.00;;;;;;;;4999731;28;45604;-76
2024/03/19 11:44:40;;;;;;;;;19.00;17.33;;;;;;;;4999233;28;45343;-77
2024/03/19 11:47:06;;;;;;;;;18.00;18.00;;;;;;;;5005844;28;46031;-77
2024/03/19 11:49:31;;;;;;;;;21.00;19.00;;;;;;;;5014434;28;45368;-75
2024/03/19 11:51:59;;;;;;;;;17.00;17.00;;;;;;;;4989606;28;45287;-76
2024/03/19 11:54:29;;;;;;;;;16.67;16.67;;;;;;;;5010440;28;45447;-75
2024/03/19 11:56:54;;;;;;;;;16.00;16.00;;;;;;;;5012805;28;45349;-76
2024/03/19 11:59:22;;;;;;;;;17.00;16.00;;;;;;;;5032018;28;45352;-76
2024/03/19 12:01:51;;;;;;;;;17.00;16.00;;;;;;;;5032159;28;45313;-76
2024/03/19 12:04:16;;;;;;;;;16.00;14.67;;;;;;;;5005714;28;45729;-76
2024/03/19 12:06:41;;;;;;;;;12.67;10.33;;;;;;;;5025356;28;45242;-76
2024/03/19 12:09:07;;;;;;;;;16.00;15.33;;;;;;;;5020512;28;45258;-76
2024/03/19 12:11:34;;;;;;;;;17.00;17.00;;;;;;;;4997302;28;45413;-76
2024/03/19 12:14:00;;;;;;;;;16.67;16.67;;;;;;;;4997502;28;46071;-76
2024/03/19 12:16:25;;;;;;;;;14.67;13.00;;;;;;;;5016951;28;46118;-76
2024/03/19 12:18:51;;;;;;;;;12.67;12.67;;;;;;;;5007156;28;45298;-75
2024/03/19 12:21:16;;;;;;;;;14.67;14.33;;;;;;;;4993817;28;45299;-76
2024/03/19 12:23:41;;;;;;;;;15.00;15.00;;;;;;;;5016188;28;45432;-76
2024/03/19 12:26:07;;;;;;;;;12.67;12.67;;;;;;;;5015282;28;45444;-77
2024/03/19 12:28:33;;;;;;;;;8.33;8.33;;;;;;;;5021696;28;44805;-76
2024/03/19 12:30:58;;;;;;;;;17.33;15.00;;;;;;;;5024787;28;44740;-77
2024/03/19 12:33:40;;;;;;;;;16.00;16.00;;;;;;;;5014721;28;45345;-76
2024/03/19 12:36:07;;;;;;;;;15.67;14.67;;;;;;;;5003897;28;46515;-76
2024/03/19 12:38:32;;;;;;;;;14.33;14.00;;;;;;;;4985173;28;45348;-75
2024/03/19 12:40:59;;;;;;;;;14.67;14.33;;;;;;;;5002901;28;45404;-76
2024/03/19 12:43:24;;;;;;;;;14.67;14.67;;;;;;;;4984478;28;47103;-73
2024/03/19 12:45:49;;;;;;;;;13.33;13.33;;;;;;;;5002240;28;46038;-75
2024/03/19 12:48:15;;;;;;;;;15.00;15.00;;;;;;;;5005764;28;45159;-77
2024/03/19 12:50:40;;;;;;;;;15.00;14.33;;;;;;;;4991926;28;45319;-76
2024/03/19 12:53:05;;;;;;;;;16.00;15.67;;;;;;;;4989367;28;47523;-77
2024/03/19 12:55:31;;;;;;;;;14.67;12.67;;;;;;;;5009910;28;45258;-77
2024/03/19 12:57:56;;;;;;;;;17.67;17.67;;;;;;;;5022100;28;45296;-78
2024/03/19 13:00:23;;;;;;;;;16.00;15.33;;;;;;;;5028693;28;45292;-76
2024/03/19 13:02:51;;;;;;;;;14.67;14.67;;;;;;;;5030197;28;45451;-76
2024/03/19 13:05:16;;;;;;;;;11.00;10.33;;;;;;;;5012817;28;47497;-76
2024/03/19 13:07:41;;;;;;;;;13.00;12.00;;;;;;;;5009691;28;45565;-76
2024/03/19 13:10:07;;;;;;;;;12.33;12.33;;;;;;;;5034422;28;45293;-77
2024/03/19 13:12:32;;;;;;;;;13.00;12.67;;;;;;;;5019682;28;46052;-77
2024/03/19 13:14:57;;;;;;;;;8.33;8.33;;;;;;;;5023649;28;47820;-78
2024/03/19 13:17:23;;;;;;;;;9.67;9.67;;;;;;;;5017551;28;45324;-78
2024/03/19 13:19:49;;;;;;;;;10.33;8.67;;;;;;;;5037860;28;45534;-78
2024/03/19 13:22:14;;;;;;;;;8.00;8.00;;;;;;;;5042408;28;45420;-77
2024/03/19 13:24:39;;;;;;;;;8.75;8.75;;;;;;;;5039616;28;45346;-74
2024/03/19 13:27:04;;;;;;;;;9.75;8.00;;;;;;;;5039819;28;45147;-76
2024/03/19 13:29:30;;;;;;;;;7.00;6.25;;;;;;;;5016943;28;45439;-78
2024/03/19 13:31:55;;;;;;;;;7.25;6.75;;;;;;;;5017827;28;47343;-77
2024/03/19 13:34:20;;;;;;;;;5.75;5.75;;;;;;;;5009986;28;47240;-73
2024/03/19 13:36:45;;;;;;;;;9.50;7.75;;;;;;;;5031744;28;45134;-76
2024/03/19 13:39:10;;;;;;;;;6.75;5.75;;;;;;;;5032785;28;45225;-74
2024/03/19 13:41:36;;;;;;;;;6.00;6.00;;;;;;;;5007032;28;45790;-76
2024/03/19 13:44:01;;;;;;;;;10.00;10.00;;;;;;;;5020356;28;47569;-77
2024/03/19 13:46:26;;;;;;;;;8.25;8.25;;;;;;;;5032565;28;45281;-75
2024/03/19 13:48:52;;;;;;;;;7.75;7.00;;;;;;;;5026922;28;45694;-77
2024/03/19 13:51:17;;;;;;;;;5.75;5.75;;;;;;;;5013118;28;46203;-74
2024/03/19 13:53:49;;;;;;;;;9.25;9.25;;;;;;;;5033045;28;45344;-73
2024/03/19 13:56:14;;;;;;;;;11.00;10.25;;;;;;;;5015375;28;45279;-76
2024/03/19 13:58:39;;;;;;;;;8.50;8.00;;;;;;;;5031016;28;45443;-73
2024/03/19 14:01:04;;;;;;;;;6.25;6.25;;;;;;;;5033169;28;45167;-76
2024/03/19 14:03:30;;;;;;;;;7.00;6.00;;;;;;;;5008808;28;47113;-73
2024/03/19 14:05:55;;;;;;;;;6.75;6.75;;;;;;;;5025199;28;45225;-73
2024/03/19 14:08:22;;;;;;;;;7.00;6.00;;;;;;;;5028050;28;45158;-74
2024/03/19 14:10:47;;;;;;;;;4.50;4.50;;;;;;;;5030885;28;45222;-77